Terminal Aerodrome Forecast
Issued by NWS

Home | Current Version | Previous Version | Text Only | Print | Product List | Glossary On
Versions: 1 2 3 4 5 6 7 8 9 10 11 12 13 14 15 16 17 18 19 20
000
FTUS41 KPBZ 021100
TAFLBE
TAF
KLBE 021120Z 0212/0312 00000KT 4SM BR BKN035
      TEMPO 0212/0214 2SM BR
     FM021500 16003KT P6SM SCT025=

USA.gov is the U.S. government's official web portal to all federal, state and local government web resources and services.